CST,Max TemperatureF,Mean TemperatureF,Min TemperatureF,Max Dew PointF,MeanDew PointF,Min DewpointF,Max Humidity, Mean Humidity, Min Humidity, Max Sea Level PressureIn, Mean Sea Level PressureIn, Min Sea Level PressureIn, Max VisibilityMiles, Mean VisibilityMiles, Min VisibilityMiles, Max Wind SpeedMPH, Mean Wind SpeedMPH, Max Gust SpeedMPH,PrecipitationIn, CloudCover, Events, WindDirDegrees
2012-11-1,41,38,35,36,27,10,87,69,35,29.99,29.90,29.84,10,10,7,12,4,21,0.00,8,Rain,322
2012-11-2,44,34,24,28,24,19,93,68,37,30.19,30.10,29.99,10,10,10,12,5,,0.00,3,,20
2012-11-3,39,32,26,27,25,23,93,79,56,30.25,30.22,30.18,10,10,10,6,1,,0.00,3,,71
2012-11-4,44,32,19,28,24,19,100,80,46,30.26,30.22,30.18,10,10,5,7,1,,0.00,0,,77
2012-11-5,42,30,19,28,25,18,100,79,53,30.23,30.16,30.01,10,10,10,9,2,,0.00,2,,151
2012-11-6,37,36,35,36,34,27,100,93,70,29.99,29.84,29.76,10,5,2,13,7,18,0.00,8,Rain-Snow,172
2012-11-7,42,38,35,39,36,36,100,94,81,30.09,30.05,29.92,10,6,0,7,1,,0.00,8,Fog,211
2012-11-8,51,42,33,37,36,34,100,82,54,30.09,30.01,29.93,10,10,7,15,6,22,0.00,4,Rain,188
2012-11-9,46,42,39,39,38,36,93,81,71,30.11,30.07,30.04,10,10,10,12,5,17,0.00,8,,66
2012-11-10,60,48,37,55,44,36,100,93,82,30.07,29.81,29.62,10,5,1,15,10,21,0.00,8,Rain-Thunderstorm,122
2012-11-11,62,44,26,55,43,23,100,87,68,29.82,29.67,29.60,10,9,4,16,11,28,0.00,7,Rain-Thunderstorm,230
2012-11-12,26,24,21,21,17,12,86,77,68,30.19,29.95,29.83,10,8,1,17,10,24,0.00,8,Snow,249
2012-11-13,37,29,21,23,19,18,93,69,45,30.35,30.30,30.20,10,10,10,10,6,16,0.00,4,,222
2012-11-14,44,38,33,32,29,23,87,71,57,30.33,30.26,30.19,10,10,4,9,5,9,0.00,4,Snow,175
2012-11-15,53,38,24,34,28,18,81,61,41,30.41,30.23,30.15,10,10,10,10,5,,0.00,2,,229
2012-11-16,44,30,17,34,23,16,100,75,37,30.49,30.43,30.38,10,10,5,8,2,,0.00,0,,155
2012-11-17,51,43,35,39,37,34,100,80,58,30.40,30.35,30.30,10,6,1,15,8,18,0.00,3,,168
2012-11-18,57,49,41,34,32,28,76,53,36,30.31,30.23,30.17,10,10,5,14,9,23,0.00,3,,168
2012-11-19,55,45,35,39,36,34,100,66,51,30.19,30.11,30.06,10,10,4,10,6,,0.00,5,Rain,171
2012-11-20,53,40,28,43,34,28,100,87,54,30.14,30.10,30.06,10,5,0,4,0,,0.00,0,Fog-Snow,305
2012-11-21,53,40,26,45,38,27,100,79,58,30.10,29.96,29.81,10,8,0,13,4,17,0.00,1,Fog,189
2012-11-22,62,45,28,43,40,25,93,68,48,29.80,29.66,29.58,10,9,1,16,11,25,0.00,3,Rain-Snow,225
2012-11-23,26,22,19,25,20,16,93,83,74,30.22,30.01,29.72,10,4,1,17,10,29,0.00,8,Snow,308
2012-11-24,26,22,17,23,15,10,93,75,55,30.21,30.06,29.79,10,7,1,9,4,,0.00,6,Snow,216
2012-11-25,26,25,24,25,22,18,93,84,74,30.04,29.86,29.76,10,9,4,10,4,22,0.00,8,Snow,274
2012-11-26,24,16,8,18,8,5,86,76,58,30.30,30.23,30.04,10,9,3,9,5,,0.00,4,Snow,292
2012-11-27,30,21,12,25,16,9,93,75,55,30.27,30.14,30.05,10,9,2,14,7,17,0.00,5,Snow,225
2012-11-28,28,24,21,25,19,16,86,76,59,30.27,30.18,30.10,10,10,10,10,5,17,0.00,4,,250
2012-11-29,35,25,15,28,24,14,100,88,70,30.19,30.13,30.08,10,7,2,10,3,16,0.00,0,,67
2012-11-30,33,30,26,30,26,21,100,88,74,30.23,30.18,30.13,10,9,3,10,8,16,0.00,8,,107